sensor_id;sensor_type;location;lat;lon;timestamp;pressure;altitude;pressure_sealevel;temperature;humidity
55317;BME280;41178;48.956;8.130;2022-11-11T00:00:21;101184.22;;;9.00;53.28
55317;BME280;41178;48.956;8.130;2022-11-11T00:05:23;101181.84;;;8.46;57.76
55317;BME280;41178;48.956;8.130;2022-11-11T00:10:27;101198.41;;;10.34;52.10
55317;BME280;41178;48.956;8.130;2022-11-11T00:15:29;101212.47;;;9.32;52.93
55317;BME280;41178;48.956;8.130;2022-11-11T00:20:31;101185.09;;;10.52;50.00
55317;BME280;41178;48.956;8.130;2022-11-11T00:25:52;101215.84;;;9.53;50.36
55317;BME280;41178;48.956;8.130;2022-11-11T00:31:13;101201.13;;;8.60;53.37
55317;BME280;41178;48.956;8.130;2022-11-11T00:36:15;101208.47;;;9.85;50.71
55317;BME280;41178;48.956;8.130;2022-11-11T00:41:19;101236.56;;;9.99;50.54
55317;BME280;41178;48.956;8.130;2022-11-11T00:46:22;101209.75;;;8.02;52.85
55317;BME280;41178;48.956;8.130;2022-11-11T00:51:42;101221.03;;;8.15;53.56
55317;BME280;41178;48.956;8.130;2022-11-11T00:56:44;101224.69;;;7.93;54.65
55317;BME280;41178;48.956;8.130;2022-11-11T01:01:46;101200.50;;;9.55;51.71
55317;BME280;41178;48.956;8.130;2022-11-11T01:06:48;101216.88;;;8.01;54.18
55317;BME280;41178;48.956;8.130;2022-11-11T01:11:50;101216.22;;;8.90;53.67
55317;BME280;41178;48.956;8.130;2022-11-11T01:16:51;101226.25;;;8.57;53.95
55317;BME280;41178;48.956;8.130;2022-11-11T01:21:53;101200.91;;;9.51;52.83
55317;BME280;41178;48.956;8.130;2022-11-11T01:26:55;101230.56;;;8.39;54.88
55317;BME280;41178;48.956;8.130;2022-11-11T01:31:57;101209.34;;;9.56;53.80
55317;BME280;41178;48.956;8.130;2022-11-11T01:36:58;101222.59;;;9.18;53.46
55317;BME280;41178;48.956;8.130;2022-11-11T01:42:00;101223.28;;;8.91;54.58
55317;BME280;41178;48.956;8.130;2022-11-11T01:47:04;101145.06;;;10.96;51.85
55317;BME280;41178;48.956;8.130;2022-11-11T01:52:12;101217.06;;;8.09;56.96
55317;BME280;41178;48.956;8.130;2022-11-11T01:57:31;101214.56;;;9.09;55.79
55317;BME280;41178;48.956;8.130;2022-11-11T02:02:39;101208.09;;;9.01;56.16
55317;BME280;41178;48.956;8.130;2022-11-11T02:07:41;101207.25;;;9.20;55.90
55317;BME280;41178;48.956;8.130;2022-11-11T02:12:43;101163.09;;;10.58;52.82
55317;BME280;41178;48.956;8.130;2022-11-11T02:18:04;101216.22;;;10.25;52.31
55317;BME280;41178;48.956;8.130;2022-11-11T02:28:34;101207.06;;;10.83;51.88
55317;BME280;41178;48.956;8.130;2022-11-11T02:33:36;101239.06;;;10.20;53.16
55317;BME280;41178;48.956;8.130;2022-11-11T02:38:38;101237.56;;;10.63;52.26
55317;BME280;41178;48.956;8.130;2022-11-11T02:43:40;101239.25;;;9.99;53.32
55317;BME280;41178;48.956;8.130;2022-11-11T02:48:42;101243.75;;;8.91;56.11
55317;BME280;41178;48.956;8.130;2022-11-11T02:53:44;101233.94;;;9.01;55.33
55317;BME280;41178;48.956;8.130;2022-11-11T02:58:45;101229.31;;;9.13;55.03
55317;BME280;41178;48.956;8.130;2022-11-11T03:03:47;101245.22;;;8.64;55.51
55317;BME280;41178;48.956;8.130;2022-11-11T03:08:49;101205.06;;;7.94;58.14
55317;BME280;41178;48.956;8.130;2022-11-11T03:13:50;101202.22;;;7.86;57.79
55317;BME280;41178;48.956;8.130;2022-11-11T03:18:52;101174.31;;;7.06;59.34
55317;BME280;41178;48.956;8.130;2022-11-11T03:23:54;101181.28;;;6.63;59.91
55317;BME280;41178;48.956;8.130;2022-11-11T03:28:56;101158.53;;;8.08;58.15
55317;BME280;41178;48.956;8.130;2022-11-11T03:33:57;101177.97;;;9.48;54.23
55317;BME280;41178;48.956;8.130;2022-11-11T03:39:18;101220.56;;;8.81;55.03
55317;BME280;41178;48.956;8.130;2022-11-11T03:44:20;101209.50;;;9.45;54.60
55317;BME280;41178;48.956;8.130;2022-11-11T03:49:21;101225.78;;;9.51;53.82
55317;BME280;41178;48.956;8.130;2022-11-11T03:54:23;101261.53;;;9.11;54.47
55317;BME280;41178;48.956;8.130;2022-11-11T03:59:25;101277.16;;;8.44;55.71
55317;BME280;41178;48.956;8.130;2022-11-11T04:04:26;101253.06;;;9.55;53.66
55317;BME280;41178;48.956;8.130;2022-11-11T04:09:46;101252.09;;;9.75;53.24
55317;BME280;41178;48.956;8.130;2022-11-11T04:15:07;101284.78;;;10.36;51.80
55317;BME280;41178;48.956;8.130;2022-11-11T04:20:27;101333.44;;;8.93;54.78
55317;BME280;41178;48.956;8.130;2022-11-11T04:25:47;101297.50;;;10.05;52.97
55317;BME280;41178;48.956;8.130;2022-11-11T04:30:49;101324.81;;;9.79;53.31
55317;BME280;41178;48.956;8.130;2022-11-11T04:35:50;101353.22;;;9.41;53.12
55317;BME280;41178;48.956;8.130;2022-11-11T04:40:52;101316.91;;;10.17;52.14
55317;BME280;41178;48.956;8.130;2022-11-11T04:46:06;101309.72;;;10.27;51.86
55317;BME280;41178;48.956;8.130;2022-11-11T04:51:08;101335.06;;;10.23;52.18
55317;BME280;41178;48.956;8.130;2022-11-11T04:56:10;101320.25;;;10.28;52.17
55317;BME280;41178;48.956;8.130;2022-11-11T05:01:41;101370.84;;;9.03;54.51
55317;BME280;41178;48.956;8.130;2022-11-11T05:07:01;101369.59;;;9.96;52.62
55317;BME280;41178;48.956;8.130;2022-11-11T05:12:21;101341.69;;;10.09;52.60
55317;BME280;41178;48.956;8.130;2022-11-11T05:17:23;101387.59;;;9.65;53.22
55317;BME280;41178;48.956;8.130;2022-11-11T05:22:43;101350.16;;;10.61;51.60
55317;BME280;41178;48.956;8.130;2022-11-11T05:27:45;101353.44;;;10.93;50.80
55317;BME280;41178;48.956;8.130;2022-11-11T05:32:47;101402.19;;;10.39;51.37
55317;BME280;41178;48.956;8.130;2022-11-11T05:37:49;101423.44;;;9.63;53.49
55317;BME280;41178;48.956;8.130;2022-11-11T05:43:09;101409.28;;;10.01;52.37
55317;BME280;41178;48.956;8.130;2022-11-11T05:48:11;101391.25;;;8.31;56.71
55317;BME280;41178;48.956;8.130;2022-11-11T05:53:12;101385.50;;;9.18;55.52
55317;BME280;41178;48.956;8.130;2022-11-11T05:58:19;101391.09;;;7.79;57.20
55317;BME280;41178;48.956;8.130;2022-11-11T06:03:20;101390.06;;;8.24;56.53
55317;BME280;41178;48.956;8.130;2022-11-11T06:08:22;101353.00;;;8.73;56.92
55317;BME280;41178;48.956;8.130;2022-11-11T06:13:24;101361.47;;;8.57;56.59
55317;BME280;41178;48.956;8.130;2022-11-11T06:18:26;101377.91;;;8.10;56.71
55317;BME280;41178;48.956;8.130;2022-11-11T06:23:31;101385.13;;;7.54;57.87
55317;BME280;41178;48.956;8.130;2022-11-11T06:28:33;101368.78;;;7.48;59.02
55317;BME280;41178;48.956;8.130;2022-11-11T06:33:36;101364.97;;;9.19;55.10
55317;BME280;41178;48.956;8.130;2022-11-11T06:38:41;101382.75;;;8.68;55.53
55317;BME280;41178;48.956;8.130;2022-11-11T06:43:43;101414.63;;;8.91;53.58
55317;BME280;41178;48.956;8.130;2022-11-11T06:48:44;101389.25;;;9.76;52.51
55317;BME280;41178;48.956;8.130;2022-11-11T06:53:46;101413.84;;;9.60;52.79
55317;BME280;41178;48.956;8.130;2022-11-11T06:58:48;101410.72;;;8.95;54.32
55317;BME280;41178;48.956;8.130;2022-11-11T07:03:49;101389.16;;;10.07;51.95
55317;BME280;41178;48.956;8.130;2022-11-11T07:08:51;101434.81;;;9.55;52.87
55317;BME280;41178;48.956;8.130;2022-11-11T07:13:53;101456.91;;;9.57;52.10
55317;BME280;41178;48.956;8.130;2022-11-11T07:18:54;101432.94;;;10.06;51.37
55317;BME280;41178;48.956;8.130;2022-11-11T07:23:56;101467.22;;;9.31;52.98
55317;BME280;41178;48.956;8.130;2022-11-11T07:28:57;101454.75;;;9.91;51.66
55317;BME280;41178;48.956;8.130;2022-11-11T07:33:59;101459.97;;;10.12;51.79
55317;BME280;41178;48.956;8.130;2022-11-11T07:39:01;101450.13;;;8.39;53.78
55317;BME280;41178;48.956;8.130;2022-11-11T07:44:09;101449.75;;;7.68;56.47
55317;BME280;41178;48.956;8.130;2022-11-11T07:49:10;101433.63;;;8.97;55.81
55317;BME280;41178;48.956;8.130;2022-11-11T07:54:12;101488.38;;;8.50;54.91
55317;BME280;41178;48.956;8.130;2022-11-11T07:59:13;101418.41;;;10.95;51.16
55317;BME280;41178;48.956;8.130;2022-11-11T08:04:15;101437.03;;;10.96;50.66
55317;BME280;41178;48.956;8.130;2022-11-11T08:09:17;101504.16;;;9.47;53.05
55317;BME280;41178;48.956;8.130;2022-11-11T08:14:21;101479.53;;;10.42;51.11
55317;BME280;41178;48.956;8.130;2022-11-11T08:19:23;101469.25;;;10.08;53.21
55317;BME280;41178;48.956;8.130;2022-11-11T08:24:25;101481.09;;;10.35;51.09
55317;BME280;41178;48.956;8.130;2022-11-11T08:29:46;101455.97;;;10.85;50.65
55317;BME280;41178;48.956;8.130;2022-11-11T08:34:48;101503.72;;;10.02;51.94
55317;BME280;41178;48.956;8.130;2022-11-11T08:39:50;101467.78;;;10.73;51.34
55317;BME280;41178;48.956;8.130;2022-11-11T08:44:52;101482.75;;;10.85;50.36
55317;BME280;41178;48.956;8.130;2022-11-11T08:49:54;101491.78;;;8.94;54.80
55317;BME280;41178;48.956;8.130;2022-11-11T08:54:56;101478.22;;;8.43;56.06
55317;BME280;41178;48.956;8.130;2022-11-11T08:59:57;101499.38;;;8.77;54.77
55317;BME280;41178;48.956;8.130;2022-11-11T09:04:59;101469.41;;;10.26;52.17
55317;BME280;41178;48.956;8.130;2022-11-11T09:10:01;101474.84;;;9.95;52.55
55317;BME280;41178;48.956;8.130;2022-11-11T09:15:03;101497.31;;;9.23;53.09
55317;BME280;41178;48.956;8.130;2022-11-11T09:20:05;101467.44;;;10.28;51.94
55317;BME280;41178;48.956;8.130;2022-11-11T09:25:07;101493.91;;;9.62;53.33
55317;BME280;41178;48.956;8.130;2022-11-11T09:30:09;101439.13;;;7.34;58.72
55317;BME280;41178;48.956;8.130;2022-11-11T09:35:11;101431.06;;;10.55;52.56
55317;BME280;41178;48.956;8.130;2022-11-11T09:40:18;101456.94;;;10.64;52.24
55317;BME280;41178;48.956;8.130;2022-11-11T09:45:47;101476.94;;;8.80;56.19
55317;BME280;41178;48.956;8.130;2022-11-11T09:50:56;101447.97;;;10.46;52.63
55317;BME280;41178;48.956;8.130;2022-11-11T09:56:10;101445.41;;;10.54;52.32
55317;BME280;41178;48.956;8.130;2022-11-11T10:01:41;101498.53;;;9.59;54.03
55317;BME280;41178;48.956;8.130;2022-11-11T10:06:44;101487.84;;;9.59;54.16
55317;BME280;41178;48.956;8.130;2022-11-11T10:12:14;101423.22;;;10.91;52.55
55317;BME280;41178;48.956;8.130;2022-11-11T10:23:02;101486.16;;;10.48;52.04
55317;BME280;41178;48.956;8.130;2022-11-11T10:28:04;101496.28;;;10.25;52.48
55317;BME280;41178;48.956;8.130;2022-11-11T10:33:16;101501.34;;;10.47;52.54
55317;BME280;41178;48.956;8.130;2022-11-11T10:43:33;101499.25;;;10.22;52.84
55317;BME280;41178;48.956;8.130;2022-11-11T10:54:12;101482.34;;;10.02;54.43
55317;BME280;41178;48.956;8.130;2022-11-11T10:59:51;101488.13;;;9.56;55.46
55317;BME280;41178;48.956;8.130;2022-11-11T11:06:27;101399.81;;;5.63;64.80
55317;BME280;41178;48.956;8.130;2022-11-11T11:11:38;101413.84;;;6.83;62.89
55317;BME280;41178;48.956;8.130;2022-11-11T11:16:47;101396.69;;;6.87;63.27
55317;BME280;41178;48.956;8.130;2022-11-11T11:21:52;101398.28;;;6.78;62.11
55317;BME280;41178;48.956;8.130;2022-11-11T11:26:59;101376.78;;;8.85;58.00
55317;BME280;41178;48.956;8.130;2022-11-11T11:32:20;101390.88;;;9.38;56.97
55317;BME280;41178;48.956;8.130;2022-11-11T11:37:24;101398.38;;;8.73;58.17
55317;BME280;41178;48.956;8.130;2022-11-11T11:42:34;101398.72;;;8.37;58.61
55317;BME280;41178;48.956;8.130;2022-11-11T11:47:44;101384.06;;;9.05;57.50
55317;BME280;41178;48.956;8.130;2022-11-11T12:04:27;101417.84;;;9.85;55.65
55317;BME280;41178;48.956;8.130;2022-11-11T12:09:45;101435.31;;;7.82;59.84
55317;BME280;41178;48.956;8.130;2022-11-11T12:15:07;101389.69;;;10.10;56.04
55317;BME280;41178;48.956;8.130;2022-11-11T12:20:18;101393.84;;;10.62;55.00
55317;BME280;41178;48.956;8.130;2022-11-11T12:25:34;101423.34;;;10.03;55.72
55317;BME280;41178;48.956;8.130;2022-11-11T12:30:41;101418.50;;;10.65;53.69
55317;BME280;41178;48.956;8.130;2022-11-11T12:41:22;101433.19;;;10.22;55.66
55317;BME280;41178;48.956;8.130;2022-11-11T12:56:35;101406.38;;;9.44;58.58
55317;BME280;41178;48.956;8.130;2022-11-11T13:01:56;101418.75;;;8.53;59.76
55317;BME280;41178;48.956;8.130;2022-11-11T13:18:11;101418.53;;;10.46;54.95
55317;BME280;41178;48.956;8.130;2022-11-11T13:23:14;101449.25;;;9.02;58.01
55317;BME280;41178;48.956;8.130;2022-11-11T13:28:33;101450.91;;;8.93;57.76
55317;BME280;41178;48.956;8.130;2022-11-11T13:33:45;101429.25;;;10.36;55.32
55317;BME280;41178;48.956;8.130;2022-11-11T13:39:00;101465.69;;;8.76;57.71
55317;BME280;41178;48.956;8.130;2022-11-11T13:44:06;101430.13;;;9.98;57.19
55317;BME280;41178;48.956;8.130;2022-11-11T13:49:37;101419.09;;;11.34;53.99
55317;BME280;41178;48.956;8.130;2022-11-11T13:54:41;101431.88;;;11.68;53.38
55317;BME280;41178;48.956;8.130;2022-11-11T14:00:00;101458.84;;;11.01;53.81
55317;BME280;41178;48.956;8.130;2022-11-11T14:10:06;101469.56;;;11.39;53.10
55317;BME280;41178;48.956;8.130;2022-11-11T14:25:38;101487.03;;;8.76;58.66
55317;BME280;41178;48.956;8.130;2022-11-11T14:30:39;101483.72;;;9.46;57.32
55317;BME280;41178;48.956;8.130;2022-11-11T14:36:05;101457.97;;;9.85;57.57
55317;BME280;41178;48.956;8.130;2022-11-11T14:57:25;101467.56;;;11.03;54.01
55317;BME280;41178;48.956;8.130;2022-11-11T15:02:33;101460.78;;;10.32;56.20
55317;BME280;41178;48.956;8.130;2022-11-11T15:07:52;101450.88;;;10.72;54.82
55317;BME280;41178;48.956;8.130;2022-11-11T15:23:40;101482.94;;;8.93;58.84
55317;BME280;41178;48.956;8.130;2022-11-11T15:34:30;101453.56;;;10.72;54.47
55317;BME280;41178;48.956;8.130;2022-11-11T15:39:45;101461.91;;;9.00;58.68
55317;BME280;41178;48.956;8.130;2022-11-11T15:44:48;101435.56;;;11.57;53.51
55317;BME280;41178;48.956;8.130;2022-11-11T15:49:51;101450.38;;;11.34;53.61
55317;BME280;41178;48.956;8.130;2022-11-11T15:54:54;101478.00;;;10.40;54.89
55317;BME280;41178;48.956;8.130;2022-11-11T15:59:57;101459.09;;;11.73;52.64
55317;BME280;41178;48.956;8.130;2022-11-11T16:05:02;101478.13;;;11.15;53.35
55317;BME280;41178;48.956;8.130;2022-11-11T16:10:08;101482.09;;;11.11;53.40
55317;BME280;41178;48.956;8.130;2022-11-11T16:15:38;101492.97;;;9.72;56.47
55317;BME280;41178;48.956;8.130;2022-11-11T16:21:05;101476.47;;;9.57;58.18
55317;BME280;41178;48.956;8.130;2022-11-11T16:26:08;101444.88;;;11.07;54.52
55317;BME280;41178;48.956;8.130;2022-11-11T16:36:21;101471.19;;;10.75;54.99
55317;BME280;41178;48.956;8.130;2022-11-11T16:41:33;101493.75;;;10.23;55.20
55317;BME280;41178;48.956;8.130;2022-11-11T16:46:41;101473.13;;;10.92;54.02
55317;BME280;41178;48.956;8.130;2022-11-11T16:51:44;101478.78;;;11.26;53.26
55317;BME280;41178;48.956;8.130;2022-11-11T16:56:50;101478.72;;;11.09;54.16
55317;BME280;41178;48.956;8.130;2022-11-11T17:01:53;101482.59;;;11.52;52.33
55317;BME280;41178;48.956;8.130;2022-11-11T17:06:58;101485.06;;;11.07;53.46
55317;BME280;41178;48.956;8.130;2022-11-11T17:12:02;101480.75;;;9.39;56.52
55317;BME280;41178;48.956;8.130;2022-11-11T17:17:06;101456.72;;;9.99;56.42
55317;BME280;41178;48.956;8.130;2022-11-11T17:22:10;101433.84;;;8.21;58.93
55317;BME280;41178;48.956;8.130;2022-11-11T17:27:12;101424.75;;;10.27;55.29
55317;BME280;41178;48.956;8.130;2022-11-11T17:32:14;101454.22;;;9.47;56.79
55317;BME280;41178;48.956;8.130;2022-11-11T17:37:15;101453.38;;;9.56;57.59
55317;BME280;41178;48.956;8.130;2022-11-11T17:42:17;101436.94;;;10.68;54.59
55317;BME280;41178;48.956;8.130;2022-11-11T17:47:19;101445.97;;;11.15;53.09
55317;BME280;41178;48.956;8.130;2022-11-11T17:52:20;101475.91;;;8.92;56.78
55317;BME280;41178;48.956;8.130;2022-11-11T17:57:22;101461.84;;;11.63;52.66
55317;BME280;41178;48.956;8.130;2022-11-11T18:02:24;101484.88;;;10.42;54.48
55317;BME280;41178;48.956;8.130;2022-11-11T18:07:25;101497.31;;;8.60;57.38
55317;BME280;41178;48.956;8.130;2022-11-11T18:12:28;101452.91;;;11.35;52.54
55317;BME280;41178;48.956;8.130;2022-11-11T18:17:30;101480.13;;;8.53;58.07
55317;BME280;41178;48.956;8.130;2022-11-11T18:22:32;101486.81;;;9.10;57.11
55317;BME280;41178;48.956;8.130;2022-11-11T18:27:33;101463.88;;;9.08;57.00
55317;BME280;41178;48.956;8.130;2022-11-11T18:32:35;101461.50;;;8.41;58.61
55317;BME280;41178;48.956;8.130;2022-11-11T18:37:36;101463.56;;;9.01;56.32
55317;BME280;41178;48.956;8.130;2022-11-11T18:42:45;101459.09;;;9.01;56.36
55317;BME280;41178;48.956;8.130;2022-11-11T18:47:47;101431.91;;;11.03;52.79
55317;BME280;41178;48.956;8.130;2022-11-11T18:52:51;101474.44;;;9.90;54.94
55317;BME280;41178;48.956;8.130;2022-11-11T18:57:52;101458.66;;;10.65;52.88
55317;BME280;41178;48.956;8.130;2022-11-11T19:02:54;101493.59;;;10.05;53.48
55317;BME280;41178;48.956;8.130;2022-11-11T19:07:56;101467.53;;;10.76;53.31
55317;BME280;41178;48.956;8.130;2022-11-11T19:12:57;101477.53;;;10.83;52.73
55317;BME280;41178;48.956;8.130;2022-11-11T19:17:59;101490.63;;;10.57;53.58
55317;BME280;41178;48.956;8.130;2022-11-11T19:23:01;101510.34;;;10.66;52.21
55317;BME280;41178;48.956;8.130;2022-11-11T19:28:02;101514.78;;;9.77;53.99
55317;BME280;41178;48.956;8.130;2022-11-11T19:33:05;101500.78;;;10.73;53.35
55317;BME280;41178;48.956;8.130;2022-11-11T19:38:07;101515.38;;;11.83;51.14
55317;BME280;41178;48.956;8.130;2022-11-11T19:43:08;101505.78;;;8.86;55.02
55317;BME280;41178;48.956;8.130;2022-11-11T19:48:11;101514.16;;;10.05;54.44
55317;BME280;41178;48.956;8.130;2022-11-11T19:53:13;101503.75;;;8.25;57.88
55317;BME280;41178;48.956;8.130;2022-11-11T19:58:14;101515.13;;;8.80;56.77
55317;BME280;41178;48.956;8.130;2022-11-11T20:03:16;101503.72;;;8.36;56.36
55317;BME280;41178;48.956;8.130;2022-11-11T20:08:18;101480.66;;;10.20;54.33
55317;BME280;41178;48.956;8.130;2022-11-11T20:13:19;101511.81;;;9.30;54.75
55317;BME280;41178;48.956;8.130;2022-11-11T20:18:21;101488.84;;;10.28;53.63
55317;BME280;41178;48.956;8.130;2022-11-11T20:23:22;101515.44;;;9.70;54.56
55317;BME280;41178;48.956;8.130;2022-11-11T20:28:25;101514.84;;;10.07;53.64
55317;BME280;41178;48.956;8.130;2022-11-11T20:33:26;101509.47;;;11.04;52.25
55317;BME280;41178;48.956;8.130;2022-11-11T20:38:29;101545.19;;;9.15;55.30
55317;BME280;41178;48.956;8.130;2022-11-11T20:43:33;101525.81;;;10.04;53.67
55317;BME280;41178;48.956;8.130;2022-11-11T20:48:36;101512.06;;;10.67;52.25
55317;BME280;41178;48.956;8.130;2022-11-11T20:53:42;101524.03;;;10.53;52.58
55317;BME280;41178;48.956;8.130;2022-11-11T20:58:45;101536.84;;;10.59;52.31
55317;BME280;41178;48.956;8.130;2022-11-11T21:03:52;101560.38;;;9.76;54.09
55317;BME280;41178;48.956;8.130;2022-11-11T21:08:55;101536.00;;;10.68;52.90
55317;BME280;41178;48.956;8.130;2022-11-11T21:13:57;101525.53;;;9.87;54.70
55317;BME280;41178;48.956;8.130;2022-11-11T21:19:01;101518.97;;;10.40;54.20
55317;BME280;41178;48.956;8.130;2022-11-11T21:24:05;101525.59;;;10.26;53.84
55317;BME280;41178;48.956;8.130;2022-11-11T21:29:07;101526.53;;;9.55;55.46
55317;BME280;41178;48.956;8.130;2022-11-11T21:34:11;101509.22;;;10.00;54.50
55317;BME280;41178;48.956;8.130;2022-11-11T21:39:13;101493.31;;;10.38;53.89
55317;BME280;41178;48.956;8.130;2022-11-11T21:44:14;101493.88;;;10.90;52.50
55317;BME280;41178;48.956;8.130;2022-11-11T21:49:16;101513.59;;;10.89;52.29
55317;BME280;41178;48.956;8.130;2022-11-11T21:54:17;101522.94;;;9.76;53.82
55317;BME280;41178;48.956;8.130;2022-11-11T21:59:20;101515.13;;;9.84;54.34
55317;BME280;41178;48.956;8.130;2022-11-11T22:04:21;101523.59;;;8.85;56.60
55317;BME280;41178;48.956;8.130;2022-11-11T22:09:23;101493.41;;;8.10;57.79
55317;BME280;41178;48.956;8.130;2022-11-11T22:14:25;101491.84;;;8.61;57.48
55317;BME280;41178;48.956;8.130;2022-11-11T22:19:26;101477.38;;;7.67;58.19
55317;BME280;41178;48.956;8.130;2022-11-11T22:24:28;101478.75;;;8.37;57.64
55317;BME280;41178;48.956;8.130;2022-11-11T22:29:29;101467.22;;;7.38;59.40
55317;BME280;41178;48.956;8.130;2022-11-11T22:34:31;101442.53;;;6.91;59.91
55317;BME280;41178;48.956;8.130;2022-11-11T22:39:33;101446.41;;;8.52;57.31
55317;BME280;41178;48.956;8.130;2022-11-11T22:44:35;101456.56;;;8.04;57.87
55317;BME280;41178;48.956;8.130;2022-11-11T22:49:36;101457.59;;;8.24;57.67
55317;BME280;41178;48.956;8.130;2022-11-11T22:54:38;101462.78;;;7.82;57.73
55317;BME280;41178;48.956;8.130;2022-11-11T22:59:40;101455.50;;;7.18;58.82
55317;BME280;41178;48.956;8.130;2022-11-11T23:04:41;101443.63;;;8.53;55.92
55317;BME280;41178;48.956;8.130;2022-11-11T23:09:43;101464.75;;;8.24;56.82
55317;BME280;41178;48.956;8.130;2022-11-11T23:14:45;101456.34;;;7.18;59.43
55317;BME280;41178;48.956;8.130;2022-11-11T23:19:46;101466.56;;;7.91;56.63
55317;BME280;41178;48.956;8.130;2022-11-11T23:24:48;101435.69;;;9.25;55.01
55317;BME280;41178;48.956;8.130;2022-11-11T23:29:49;101455.66;;;9.20;54.33
55317;BME280;41178;48.956;8.130;2022-11-11T23:34:53;101454.59;;;9.93;53.44
55317;BME280;41178;48.956;8.130;2022-11-11T23:39:54;101484.53;;;8.63;54.76
55317;BME280;41178;48.956;8.130;2022-11-11T23:44:56;101484.91;;;7.28;57.87
55317;BME280;41178;48.956;8.130;2022-11-11T23:49:58;101464.75;;;10.19;52.51
55317;BME280;41178;48.956;8.130;2022-11-11T23:54:59;101508.94;;;8.91;54.03
